sensor_id;sensor_type;location;lat;lon;timestamp;pressure;altitude;pressure_sealevel;temperature;humidity
40171;BME280;37650;52.790;18.268;2023-05-24T00:03:28;100171.36;;;16.57;83.56
40171;BME280;37650;52.790;18.268;2023-05-24T00:06:50;100173.89;;;16.51;84.32
40171;BME280;37650;52.790;18.268;2023-05-24T00:10:13;100170.84;;;16.46;84.39
40171;BME280;37650;52.790;18.268;2023-05-24T00:13:34;100170.13;;;16.43;84.94
40171;BME280;37650;52.790;18.268;2023-05-24T00:16:54;100166.70;;;16.41;85.19
40171;BME280;37650;52.790;18.268;2023-05-24T00:20:15;100159.31;;;16.37;85.29
40171;BME280;37650;52.790;18.268;2023-05-24T00:23:36;100157.95;;;16.39;85.72
40171;BME280;37650;52.790;18.268;2023-05-24T00:26:58;100159.84;;;16.37;85.97
40171;BME280;37650;52.790;18.268;2023-05-24T00:30:18;100164.58;;;16.35;86.04
40171;BME280;37650;52.790;18.268;2023-05-24T00:33:39;100160.48;;;16.36;86.08
40171;BME280;37650;52.790;18.268;2023-05-24T00:36:59;100161.55;;;16.36;86.21
40171;BME280;37650;52.790;18.268;2023-05-24T00:40:20;100162.42;;;16.33;86.48
40171;BME280;37650;52.790;18.268;2023-05-24T00:43:40;100163.33;;;16.33;86.61
40171;BME280;37650;52.790;18.268;2023-05-24T00:47:04;100164.42;;;16.29;86.85
40171;BME280;37650;52.790;18.268;2023-05-24T00:50:26;100164.84;;;16.26;86.61
40171;BME280;37650;52.790;18.268;2023-05-24T00:53:48;100165.68;;;16.21;86.95
40171;BME280;37650;52.790;18.268;2023-05-24T00:57:10;100166.72;;;16.19;86.97
40171;BME280;37650;52.790;18.268;2023-05-24T01:00:33;100168.11;;;16.14;87.27
40171;BME280;37650;52.790;18.268;2023-05-24T01:03:54;100168.45;;;16.08;87.36
40171;BME280;37650;52.790;18.268;2023-05-24T01:28:51;100183.20;;;15.96;89.14
40171;BME280;37650;52.790;18.268;2023-05-24T01:32:12;100188.72;;;15.92;89.56
40171;BME280;37650;52.790;18.268;2023-05-24T01:35:33;100195.11;;;15.89;90.10
40171;BME280;37650;52.790;18.268;2023-05-24T01:38:59;100199.94;;;15.86;90.38
40171;BME280;37650;52.790;18.268;2023-05-24T01:42:26;100198.28;;;15.81;90.61
40171;BME280;37650;52.790;18.268;2023-05-24T01:46:43;100195.92;;;15.74;91.28
40171;BME280;37650;52.790;18.268;2023-05-24T01:50:01;100196.66;;;15.68;91.96
40171;BME280;37650;52.790;18.268;2023-05-24T01:53:33;100192.80;;;15.70;92.19
40171;BME280;37650;52.790;18.268;2023-05-24T01:56:55;100190.40;;;15.74;92.12
40171;BME280;37650;52.790;18.268;2023-05-24T02:00:18;100195.52;;;15.75;92.07
40171;BME280;37650;52.790;18.268;2023-05-24T02:03:40;100203.25;;;15.73;92.22
40171;BME280;37650;52.790;18.268;2023-05-24T02:07:00;100203.28;;;15.69;92.57
40171;BME280;37650;52.790;18.268;2023-05-24T02:10:21;100209.27;;;15.67;92.64
40171;BME280;37650;52.790;18.268;2023-05-24T02:13:41;100210.77;;;15.65;92.26
40171;BME280;37650;52.790;18.268;2023-05-24T02:17:03;100208.86;;;15.65;92.24
40171;BME280;37650;52.790;18.268;2023-05-24T02:20:24;100210.11;;;15.65;92.29
40171;BME280;37650;52.790;18.268;2023-05-24T02:23:44;100213.13;;;15.62;92.14
40171;BME280;37650;52.790;18.268;2023-05-24T02:27:05;100206.59;;;15.55;92.31
40171;BME280;37650;52.790;18.268;2023-05-24T02:30:25;100205.34;;;15.55;92.00
40171;BME280;37650;52.790;18.268;2023-05-24T02:33:46;100202.80;;;15.56;91.65
40171;BME280;37650;52.790;18.268;2023-05-24T02:37:07;100193.07;;;15.54;91.61
40171;BME280;37650;52.790;18.268;2023-05-24T02:40:28;100192.15;;;15.51;91.93
40171;BME280;37650;52.790;18.268;2023-05-24T02:43:48;100193.11;;;15.49;91.69
40171;BME280;37650;52.790;18.268;2023-05-24T02:47:09;100196.54;;;15.52;91.76
40171;BME280;37650;52.790;18.268;2023-05-24T02:50:30;100199.68;;;15.52;91.53
40171;BME280;37650;52.790;18.268;2023-05-24T02:53:51;100206.86;;;15.50;91.64
40171;BME280;37650;52.790;18.268;2023-05-24T02:57:11;100216.86;;;15.49;92.07
40171;BME280;37650;52.790;18.268;2023-05-24T03:00:32;100224.24;;;15.46;92.60
40171;BME280;37650;52.790;18.268;2023-05-24T03:03:53;100228.73;;;15.42;93.04
40171;BME280;37650;52.790;18.268;2023-05-24T03:07:13;100236.02;;;15.39;94.15
40171;BME280;37650;52.790;18.268;2023-05-24T03:10:34;100239.45;;;15.34;94.59
40171;BME280;37650;52.790;18.268;2023-05-24T03:13:54;100242.04;;;15.26;95.25
40171;BME280;37650;52.790;18.268;2023-05-24T03:17:15;100241.64;;;15.18;96.36
40171;BME280;37650;52.790;18.268;2023-05-24T03:20:36;100248.48;;;15.10;98.45
40171;BME280;37650;52.790;18.268;2023-05-24T03:23:57;100257.75;;;15.02;99.15
40171;BME280;37650;52.790;18.268;2023-05-24T03:27:17;100259.35;;;14.99;99.61
40171;BME280;37650;52.790;18.268;2023-05-24T03:30:38;100259.34;;;14.90;99.92
40171;BME280;37650;52.790;18.268;2023-05-24T03:33:59;100257.73;;;14.75;100.00
40171;BME280;37650;52.790;18.268;2023-05-24T03:37:21;100257.65;;;14.70;100.00
40171;BME280;37650;52.790;18.268;2023-05-24T03:40:41;100259.02;;;14.70;100.00
40171;BME280;37650;52.790;18.268;2023-05-24T03:44:11;100260.77;;;14.74;100.00
40171;BME280;37650;52.790;18.268;2023-05-24T03:47:32;100258.16;;;14.73;100.00
40171;BME280;37650;52.790;18.268;2023-05-24T03:50:52;100261.66;;;14.70;100.00
40171;BME280;37650;52.790;18.268;2023-05-24T03:54:13;100267.80;;;14.71;100.00
40171;BME280;37650;52.790;18.268;2023-05-24T03:57:34;100271.56;;;14.64;100.00
40171;BME280;37650;52.790;18.268;2023-05-24T04:00:55;100275.38;;;14.62;100.00
40171;BME280;37650;52.790;18.268;2023-05-24T04:04:16;100278.15;;;14.60;100.00
40171;BME280;37650;52.790;18.268;2023-05-24T04:07:36;100287.01;;;14.56;100.00
40171;BME280;37650;52.790;18.268;2023-05-24T04:10:57;100286.21;;;14.52;100.00
40171;BME280;37650;52.790;18.268;2023-05-24T04:14:17;100294.80;;;14.46;100.00
40171;BME280;37650;52.790;18.268;2023-05-24T04:17:38;100298.95;;;14.38;100.00
40171;BME280;37650;52.790;18.268;2023-05-24T04:20:59;100298.39;;;14.32;100.00
40171;BME280;37650;52.790;18.268;2023-05-24T04:24:19;100298.52;;;14.26;100.00
40171;BME280;37650;52.790;18.268;2023-05-24T04:27:40;100302.03;;;14.20;100.00
40171;BME280;37650;52.790;18.268;2023-05-24T04:31:00;100305.94;;;14.16;100.00
40171;BME280;37650;52.790;18.268;2023-05-24T04:34:22;100311.95;;;14.09;100.00
40171;BME280;37650;52.790;18.268;2023-05-24T04:37:44;100313.37;;;14.02;100.00
40171;BME280;37650;52.790;18.268;2023-05-24T04:41:06;100320.61;;;13.95;100.00
40171;BME280;37650;52.790;18.268;2023-05-24T04:44:27;100323.86;;;13.97;100.00
40171;BME280;37650;52.790;18.268;2023-05-24T04:47:47;100327.25;;;14.00;100.00
40171;BME280;37650;52.790;18.268;2023-05-24T04:51:08;100331.27;;;14.04;100.00
40171;BME280;37650;52.790;18.268;2023-05-24T04:54:29;100337.02;;;14.05;100.00
40171;BME280;37650;52.790;18.268;2023-05-24T04:57:49;100340.89;;;14.09;100.00
40171;BME280;37650;52.790;18.268;2023-05-24T05:01:10;100345.12;;;14.15;100.00
40171;BME280;37650;52.790;18.268;2023-05-24T05:04:32;100350.89;;;14.16;100.00
40171;BME280;37650;52.790;18.268;2023-05-24T05:07:52;100350.96;;;14.15;100.00
40171;BME280;37650;52.790;18.268;2023-05-24T05:11:13;100348.08;;;14.06;100.00
40171;BME280;37650;52.790;18.268;2023-05-24T05:14:34;100350.77;;;14.05;100.00
40171;BME280;37650;52.790;18.268;2023-05-24T05:17:54;100357.09;;;14.06;100.00
40171;BME280;37650;52.790;18.268;2023-05-24T05:21:15;100359.15;;;14.07;100.00
40171;BME280;37650;52.790;18.268;2023-05-24T05:24:35;100363.25;;;14.03;100.00
40171;BME280;37650;52.790;18.268;2023-05-24T05:27:56;100371.83;;;14.04;100.00
40171;BME280;37650;52.790;18.268;2023-05-24T05:31:16;100375.25;;;14.06;100.00
40171;BME280;37650;52.790;18.268;2023-05-24T05:34:37;100380.66;;;14.07;100.00
40171;BME280;37650;52.790;18.268;2023-05-24T05:37:58;100388.73;;;14.08;100.00
40171;BME280;37650;52.790;18.268;2023-05-24T05:41:19;100399.92;;;14.13;100.00
40171;BME280;37650;52.790;18.268;2023-05-24T05:44:39;100407.30;;;14.21;100.00
40171;BME280;37650;52.790;18.268;2023-05-24T05:48:00;100408.54;;;14.27;100.00
40171;BME280;37650;52.790;18.268;2023-05-24T05:51:20;100410.80;;;14.35;100.00
40171;BME280;37650;52.790;18.268;2023-05-24T05:54:41;100415.43;;;14.45;100.00
40171;BME280;37650;52.790;18.268;2023-05-24T05:58:01;100419.35;;;14.51;100.00
40171;BME280;37650;52.790;18.268;2023-05-24T06:01:22;100426.64;;;14.59;100.00
40171;BME280;37650;52.790;18.268;2023-05-24T06:04:44;100434.34;;;14.70;100.00
40171;BME280;37650;52.790;18.268;2023-05-24T06:08:05;100436.70;;;14.73;100.00
40171;BME280;37650;52.790;18.268;2023-05-24T06:11:25;100436.98;;;14.78;100.00
40171;BME280;37650;52.790;18.268;2023-05-24T06:14:46;100438.02;;;14.97;100.00
40171;BME280;37650;52.790;18.268;2023-05-24T06:18:09;100444.65;;;15.28;100.00
40171;BME280;37650;52.790;18.268;2023-05-24T06:21:30;100449.45;;;15.46;100.00
40171;BME280;37650;52.790;18.268;2023-05-24T06:24:51;100451.77;;;15.72;100.00
40171;BME280;37650;52.790;18.268;2023-05-24T06:28:11;100456.29;;;15.79;100.00
40171;BME280;37650;52.790;18.268;2023-05-24T06:31:31;100462.31;;;15.79;100.00
40171;BME280;37650;52.790;18.268;2023-05-24T06:34:52;100465.85;;;15.82;100.00
40171;BME280;37650;52.790;18.268;2023-05-24T06:38:13;100469.84;;;15.92;100.00
40171;BME280;37650;52.790;18.268;2023-05-24T06:41:34;100471.92;;;15.96;100.00
40171;BME280;37650;52.790;18.268;2023-05-24T06:44:55;100475.25;;;16.03;100.00
40171;BME280;37650;52.790;18.268;2023-05-24T06:48:15;100482.08;;;16.19;100.00
40171;BME280;37650;52.790;18.268;2023-05-24T06:51:35;100480.42;;;16.53;99.96
40171;BME280;37650;52.790;18.268;2023-05-24T06:54:57;100484.92;;;16.75;97.72
40171;BME280;37650;52.790;18.268;2023-05-24T06:58:17;100489.10;;;16.68;95.95
40171;BME280;37650;52.790;18.268;2023-05-24T07:01:38;100494.04;;;16.71;95.74
40171;BME280;37650;52.790;18.268;2023-05-24T07:05:01;100495.88;;;16.79;95.34
40171;BME280;37650;52.790;18.268;2023-05-24T07:08:24;100505.23;;;16.85;95.20
40171;BME280;37650;52.790;18.268;2023-05-24T07:11:44;100510.48;;;16.86;93.78
40171;BME280;37650;52.790;18.268;2023-05-24T07:15:06;100512.99;;;16.80;92.98
40171;BME280;37650;52.790;18.268;2023-05-24T07:18:28;100518.19;;;16.93;93.83
40171;BME280;37650;52.790;18.268;2023-05-24T07:21:49;100525.23;;;17.17;93.11
40171;BME280;37650;52.790;18.268;2023-05-24T07:25:10;100528.25;;;17.03;91.83
40171;BME280;37650;52.790;18.268;2023-05-24T07:28:31;100528.19;;;16.86;91.35
40171;BME280;37650;52.790;18.268;2023-05-24T07:31:53;100531.55;;;16.84;92.22
40171;BME280;37650;52.790;18.268;2023-05-24T07:35:16;100535.31;;;16.85;91.47
40171;BME280;37650;52.790;18.268;2023-05-24T07:38:37;100536.21;;;16.85;91.37
40171;BME280;37650;52.790;18.268;2023-05-24T07:41:58;100542.33;;;16.81;91.01
40171;BME280;37650;52.790;18.268;2023-05-24T07:45:18;100543.47;;;16.77;90.70
40171;BME280;37650;52.790;18.268;2023-05-24T07:48:39;100550.99;;;16.67;91.20
40171;BME280;37650;52.790;18.268;2023-05-24T07:51:59;100555.90;;;16.76;91.40
40171;BME280;37650;52.790;18.268;2023-05-24T07:55:20;100555.67;;;16.83;91.21
40171;BME280;37650;52.790;18.268;2023-05-24T07:58:41;100550.83;;;16.87;91.24
40171;BME280;37650;52.790;18.268;2023-05-24T08:02:03;100555.69;;;16.86;90.83
40171;BME280;37650;52.790;18.268;2023-05-24T08:05:25;100568.84;;;16.70;90.55
40171;BME280;37650;52.790;18.268;2023-05-24T08:08:45;100573.59;;;16.65;91.34
40171;BME280;37650;52.790;18.268;2023-05-24T08:12:07;100576.88;;;16.66;91.09
40171;BME280;37650;52.790;18.268;2023-05-24T08:15:27;100577.77;;;16.66;91.29
40171;BME280;37650;52.790;18.268;2023-05-24T08:18:48;100578.91;;;16.65;90.82
40171;BME280;37650;52.790;18.268;2023-05-24T08:22:08;100579.58;;;16.56;90.83
40171;BME280;37650;52.790;18.268;2023-05-24T08:25:29;100584.31;;;16.48;91.32
40171;BME280;37650;52.790;18.268;2023-05-24T08:28:50;100587.23;;;16.52;91.94
40171;BME280;37650;52.790;18.268;2023-05-24T08:32:10;100594.92;;;16.48;91.45
40171;BME280;37650;52.790;18.268;2023-05-24T08:35:31;100594.04;;;16.41;91.56
40171;BME280;37650;52.790;18.268;2023-05-24T08:38:52;100598.28;;;16.38;91.64
40171;BME280;37650;52.790;18.268;2023-05-24T08:42:13;100602.13;;;16.33;91.34
40171;BME280;37650;52.790;18.268;2023-05-24T08:45:35;100601.82;;;16.33;91.81
40171;BME280;37650;52.790;18.268;2023-05-24T08:48:56;100604.99;;;16.33;91.99
40171;BME280;37650;52.790;18.268;2023-05-24T08:52:18;100605.92;;;16.29;92.38
40171;BME280;37650;52.790;18.268;2023-05-24T08:55:40;100606.94;;;16.30;92.44
40171;BME280;37650;52.790;18.268;2023-05-24T08:59:02;100617.88;;;16.36;92.32
40171;BME280;37650;52.790;18.268;2023-05-24T09:02:23;100617.67;;;16.47;92.29
40171;BME280;37650;52.790;18.268;2023-05-24T09:05:43;100615.10;;;16.64;92.16
40171;BME280;37650;52.790;18.268;2023-05-24T09:09:06;100619.73;;;16.90;91.81
40171;BME280;37650;52.790;18.268;2023-05-24T09:12:29;100631.97;;;17.19;91.13
40171;BME280;37650;52.790;18.268;2023-05-24T09:15:52;100631.52;;;17.35;89.86
40171;BME280;37650;52.790;18.268;2023-05-24T09:19:13;100637.52;;;17.33;89.62
40171;BME280;37650;52.790;18.268;2023-05-24T09:22:35;100640.11;;;17.37;88.93
40171;BME280;37650;52.790;18.268;2023-05-24T09:25:57;100636.14;;;17.47;89.04
40171;BME280;37650;52.790;18.268;2023-05-24T09:29:25;100642.39;;;17.49;88.10
40171;BME280;37650;52.790;18.268;2023-05-24T09:32:59;100645.98;;;17.63;88.65
40171;BME280;37650;52.790;18.268;2023-05-24T09:36:20;100649.93;;;17.90;88.07
40171;BME280;37650;52.790;18.268;2023-05-24T09:39:45;100659.38;;;17.96;86.66
40171;BME280;37650;52.790;18.268;2023-05-24T09:43:08;100660.23;;;17.99;86.38
40171;BME280;37650;52.790;18.268;2023-05-24T09:46:34;100655.23;;;18.21;85.93
40171;BME280;37650;52.790;18.268;2023-05-24T09:49:56;100657.80;;;18.56;86.13
40171;BME280;37650;52.790;18.268;2023-05-24T09:53:17;100665.59;;;18.83;84.51
40171;BME280;37650;52.790;18.268;2023-05-24T09:56:39;100665.99;;;18.90;83.31
40171;BME280;37650;52.790;18.268;2023-05-24T10:00:04;100662.36;;;18.94;82.74
40171;BME280;37650;52.790;18.268;2023-05-24T10:03:27;100672.13;;;18.89;82.33
40171;BME280;37650;52.790;18.268;2023-05-24T10:06:49;100671.58;;;18.57;81.29
40171;BME280;37650;52.790;18.268;2023-05-24T10:10:10;100665.12;;;18.22;81.67
40171;BME280;37650;52.790;18.268;2023-05-24T10:13:34;100663.95;;;18.21;82.56
40171;BME280;37650;52.790;18.268;2023-05-24T10:16:55;100665.08;;;18.39;82.55
40171;BME280;37650;52.790;18.268;2023-05-24T10:20:15;100663.41;;;18.73;82.71
40171;BME280;37650;52.790;18.268;2023-05-24T10:23:38;100659.54;;;19.04;82.41
40171;BME280;37650;52.790;18.268;2023-05-24T10:27:09;100661.92;;;19.19;80.68
40171;BME280;37650;52.790;18.268;2023-05-24T10:30:44;100664.62;;;19.08;79.85
40171;BME280;37650;52.790;18.268;2023-05-24T10:34:08;100668.13;;;19.14;79.55
40171;BME280;37650;52.790;18.268;2023-05-24T10:37:29;100667.75;;;19.24;79.80
40171;BME280;37650;52.790;18.268;2023-05-24T10:40:51;100674.30;;;19.40;79.45
40171;BME280;37650;52.790;18.268;2023-05-24T10:44:16;100678.60;;;19.21;78.85
40171;BME280;37650;52.790;18.268;2023-05-24T10:47:37;100679.67;;;19.03;78.47
40171;BME280;37650;52.790;18.268;2023-05-24T10:55:09;100683.43;;;19.32;79.54
40171;BME280;37650;52.790;18.268;2023-05-24T11:01:57;100687.39;;;20.20;77.91
40171;BME280;37650;52.790;18.268;2023-05-24T11:05:19;100696.63;;;20.54;75.15
40171;BME280;37650;52.790;18.268;2023-05-24T11:08:40;100694.75;;;20.21;74.53
40171;BME280;37650;52.790;18.268;2023-05-24T11:12:07;100695.09;;;19.92;74.63
40171;BME280;37650;52.790;18.268;2023-05-24T11:15:30;100700.58;;;19.85;75.38
40171;BME280;37650;52.790;18.268;2023-05-24T11:18:54;100699.20;;;19.79;74.81
40171;BME280;37650;52.790;18.268;2023-05-24T11:22:15;100707.20;;;19.64;75.58
40171;BME280;37650;52.790;18.268;2023-05-24T11:25:37;100702.38;;;19.77;74.98
40171;BME280;37650;52.790;18.268;2023-05-24T11:28:59;100703.95;;;19.95;75.01
40171;BME280;37650;52.790;18.268;2023-05-24T11:32:20;100709.52;;;19.92;73.28
40171;BME280;37650;52.790;18.268;2023-05-24T11:35:52;100703.95;;;19.90;73.07
40171;BME280;37650;52.790;18.268;2023-05-24T11:39:13;100713.09;;;19.99;72.87
40171;BME280;37650;52.790;18.268;2023-05-24T11:42:34;100712.30;;;19.98;73.07
40171;BME280;37650;52.790;18.268;2023-05-24T11:45:58;100710.34;;;20.38;73.38
40171;BME280;37650;52.790;18.268;2023-05-24T11:49:19;100707.63;;;20.28;71.91
40171;BME280;37650;52.790;18.268;2023-05-24T11:52:39;100707.84;;;19.90;72.14
40171;BME280;37650;52.790;18.268;2023-05-24T11:56:00;100709.05;;;19.58;72.62
40171;BME280;37650;52.790;18.268;2023-05-24T12:02:42;100719.45;;;19.47;73.78
40171;BME280;37650;52.790;18.268;2023-05-24T12:06:03;100713.36;;;19.55;74.17
40171;BME280;37650;52.790;18.268;2023-05-24T12:09:24;100717.78;;;19.65;73.26
40171;BME280;37650;52.790;18.268;2023-05-24T12:12:45;100720.64;;;19.80;73.19
40171;BME280;37650;52.790;18.268;2023-05-24T12:16:06;100721.58;;;19.80;72.85
40171;BME280;37650;52.790;18.268;2023-05-24T12:19:31;100724.09;;;19.82;73.21
40171;BME280;37650;52.790;18.268;2023-05-24T12:22:55;100723.58;;;19.92;73.10
40171;BME280;37650;52.790;18.268;2023-05-24T12:26:19;100721.63;;;20.09;73.18
40171;BME280;37650;52.790;18.268;2023-05-24T12:29:41;100714.02;;;20.26;72.71
40171;BME280;37650;52.790;18.268;2023-05-24T12:33:02;100716.30;;;20.61;72.58
40171;BME280;37650;52.790;18.268;2023-05-24T12:36:23;100714.64;;;20.95;71.34
40171;BME280;37650;52.790;18.268;2023-05-24T12:39:44;100712.77;;;21.03;69.61
40171;BME280;37650;52.790;18.268;2023-05-24T12:43:04;100713.78;;;21.16;69.92
40171;BME280;37650;52.790;18.268;2023-05-24T12:46:25;100713.86;;;21.38;69.93
40171;BME280;37650;52.790;18.268;2023-05-24T12:49:46;100719.38;;;21.64;68.13
40171;BME280;37650;52.790;18.268;2023-05-24T12:53:07;100718.35;;;21.93;67.67
40171;BME280;37650;52.790;18.268;2023-05-24T12:56:28;100716.20;;;22.00;66.52
40171;BME280;37650;52.790;18.268;2023-05-24T12:59:49;100713.45;;;21.98;65.95
40171;BME280;37650;52.790;18.268;2023-05-24T13:03:09;100715.48;;;21.93;66.39
40171;BME280;37650;52.790;18.268;2023-05-24T13:06:30;100718.80;;;21.73;66.30
40171;BME280;37650;52.790;18.268;2023-05-24T13:09:50;100722.59;;;21.79;66.21
40171;BME280;37650;52.790;18.268;2023-05-24T13:13:11;100716.04;;;21.63;65.97
40171;BME280;37650;52.790;18.268;2023-05-24T13:16:32;100715.46;;;21.66;66.56
40171;BME280;37650;52.790;18.268;2023-05-24T13:19:52;100710.52;;;21.47;65.21
40171;BME280;37650;52.790;18.268;2023-05-24T13:23:13;100711.05;;;20.93;66.30
40171;BME280;37650;52.790;18.268;2023-05-24T13:26:33;100707.16;;;20.85;67.81
40171;BME280;37650;52.790;18.268;2023-05-24T13:29:56;100704.95;;;21.29;68.84
40171;BME280;37650;52.790;18.268;2023-05-24T13:33:18;100703.09;;;21.53;66.95
40171;BME280;37650;52.790;18.268;2023-05-24T13:36:38;100711.25;;;21.58;66.83
40171;BME280;37650;52.790;18.268;2023-05-24T13:39:59;100718.01;;;21.59;66.51
40171;BME280;37650;52.790;18.268;2023-05-24T13:43:20;100716.31;;;21.66;66.73
40171;BME280;37650;52.790;18.268;2023-05-24T13:46:42;100717.17;;;21.49;66.26
40171;BME280;37650;52.790;18.268;2023-05-24T13:50:03;100717.21;;;21.39;66.05
40171;BME280;37650;52.790;18.268;2023-05-24T13:53:26;100722.86;;;20.80;66.77
40171;BME280;37650;52.790;18.268;2023-05-24T13:56:48;100718.63;;;20.53;68.45
40171;BME280;37650;52.790;18.268;2023-05-24T14:00:10;100713.48;;;20.53;69.05
40171;BME280;37650;52.790;18.268;2023-05-24T14:03:31;100717.27;;;20.60;69.28
40171;BME280;37650;52.790;18.268;2023-05-24T14:06:51;100719.37;;;20.58;69.18
40171;BME280;37650;52.790;18.268;2023-05-24T14:10:12;100719.66;;;20.54;69.60
40171;BME280;37650;52.790;18.268;2023-05-24T14:13:33;100722.60;;;20.18;69.38
40171;BME280;37650;52.790;18.268;2023-05-24T14:16:53;100725.16;;;19.74;70.06
40171;BME280;37650;52.790;18.268;2023-05-24T14:20:14;100724.38;;;19.57;71.46
40171;BME280;37650;52.790;18.268;2023-05-24T14:23:35;100720.38;;;19.45;71.60
40171;BME280;37650;52.790;18.268;2023-05-24T14:26:56;100716.79;;;19.30;72.38
40171;BME280;37650;52.790;18.268;2023-05-24T14:30:16;100722.47;;;19.41;72.99
40171;BME280;37650;52.790;18.268;2023-05-24T14:33:37;100721.30;;;19.51;72.89
40171;BME280;37650;52.790;18.268;2023-05-24T14:36:57;100726.81;;;19.68;73.12
40171;BME280;37650;52.790;18.268;2023-05-24T14:40:18;100728.23;;;19.76;72.95
40171;BME280;37650;52.790;18.268;2023-05-24T14:43:39;100735.66;;;19.80;72.53
40171;BME280;37650;52.790;18.268;2023-05-24T14:47:01;100740.50;;;19.61;72.54
40171;BME280;37650;52.790;18.268;2023-05-24T14:50:24;100739.12;;;19.71;72.79
40171;BME280;37650;52.790;18.268;2023-05-24T14:53:45;100747.08;;;19.73;72.51
40171;BME280;37650;52.790;18.268;2023-05-24T14:57:06;100746.45;;;19.78;72.32
40171;BME280;37650;52.790;18.268;2023-05-24T15:00:30;100755.82;;;19.84;71.94
40171;BME280;37650;52.790;18.268;2023-05-24T15:03:51;100755.34;;;19.78;72.27
40171;BME280;37650;52.790;18.268;2023-05-24T15:07:12;100761.15;;;19.74;72.24
40171;BME280;37650;52.790;18.268;2023-05-24T15:10:33;100761.80;;;19.49;72.75
40171;BME280;37650;52.790;18.268;2023-05-24T15:13:53;100760.61;;;19.24;73.71
40171;BME280;37650;52.790;18.268;2023-05-24T15:17:17;100767.63;;;19.15;73.93
40171;BME280;37650;52.790;18.268;2023-05-24T15:20:38;100762.88;;;18.85;74.43
40171;BME280;37650;52.790;18.268;2023-05-24T15:23:58;100767.02;;;18.84;75.54
40171;BME280;37650;52.790;18.268;2023-05-24T15:27:19;100768.48;;;18.83;75.48
40171;BME280;37650;52.790;18.268;2023-05-24T15:30:39;100771.15;;;18.67;76.11
40171;BME280;37650;52.790;18.268;2023-05-24T15:34:04;100766.95;;;18.49;76.46
40171;BME280;37650;52.790;18.268;2023-05-24T15:37:26;100771.34;;;18.38;77.07
40171;BME280;37650;52.790;18.268;2023-05-24T15:40:46;100774.67;;;18.25;77.38
40171;BME280;37650;52.790;18.268;2023-05-24T15:44:09;100782.10;;;18.34;78.04
40171;BME280;37650;52.790;18.268;2023-05-24T15:47:34;100784.90;;;18.18;78.04
40171;BME280;37650;52.790;18.268;2023-05-24T15:50:58;100785.17;;;18.17;78.40
40171;BME280;37650;52.790;18.268;2023-05-24T15:54:19;100783.20;;;18.25;78.71
40171;BME280;37650;52.790;18.268;2023-05-24T15:57:40;100775.48;;;18.21;78.52
40171;BME280;37650;52.790;18.268;2023-05-24T16:01:01;100785.11;;;17.88;78.79
40171;BME280;37650;52.790;18.268;2023-05-24T16:04:22;100789.63;;;17.75;79.29
40171;BME280;37650;52.790;18.268;2023-05-24T16:07:52;100793.36;;;17.64;80.17
40171;BME280;37650;52.790;18.268;2023-05-24T16:11:14;100795.27;;;17.52;80.67
40171;BME280;37650;52.790;18.268;2023-05-24T16:14:35;100796.48;;;17.43;80.78
40171;BME280;37650;52.790;18.268;2023-05-24T16:17:57;100799.45;;;17.38;81.40
40171;BME280;37650;52.790;18.268;2023-05-24T16:21:21;100801.26;;;17.29;81.70
40171;BME280;37650;52.790;18.268;2023-05-24T16:24:43;100803.29;;;17.18;82.14
40171;BME280;37650;52.790;18.268;2023-05-24T16:28:05;100800.62;;;16.97;83.46
40171;BME280;37650;52.790;18.268;2023-05-24T16:31:26;100802.42;;;16.74;83.33
40171;BME280;37650;52.790;18.268;2023-05-24T16:34:49;100799.52;;;16.69;84.03
40171;BME280;37650;52.790;18.268;2023-05-24T16:38:10;100805.77;;;16.62;85.69
40171;BME280;37650;52.790;18.268;2023-05-24T16:41:30;100802.92;;;16.46;85.61
40171;BME280;37650;52.790;18.268;2023-05-24T16:44:56;100804.48;;;16.39;85.95
40171;BME280;37650;52.790;18.268;2023-05-24T16:48:21;100809.73;;;16.37;86.46
40171;BME280;37650;52.790;18.268;2023-05-24T16:51:48;100812.38;;;16.21;86.46
40171;BME280;37650;52.790;18.268;2023-05-24T16:55:13;100815.23;;;16.15;86.71
40171;BME280;37650;52.790;18.268;2023-05-24T16:58:36;100820.38;;;16.08;87.97
40171;BME280;37650;52.790;18.268;2023-05-24T17:01:57;100822.60;;;15.92;88.63
40171;BME280;37650;52.790;18.268;2023-05-24T17:05:17;100819.61;;;15.82;89.01
40171;BME280;37650;52.790;18.268;2023-05-24T17:08:38;100822.84;;;15.71;90.38
40171;BME280;37650;52.790;18.268;2023-05-24T17:11:59;100828.73;;;15.66;90.10
40171;BME280;37650;52.790;18.268;2023-05-24T17:15:19;100833.58;;;15.61;91.38
40171;BME280;37650;52.790;18.268;2023-05-24T17:18:40;100830.95;;;15.61;91.23
40171;BME280;37650;52.790;18.268;2023-05-24T17:22:02;100827.90;;;15.65;91.33
40171;BME280;37650;52.790;18.268;2023-05-24T17:25:25;100835.79;;;15.52;93.62
40171;BME280;37650;52.790;18.268;2023-05-24T17:28:46;100838.63;;;15.44;92.74
40171;BME280;37650;52.790;18.268;2023-05-24T17:32:07;100841.02;;;15.43;93.27
40171;BME280;37650;52.790;18.268;2023-05-24T17:35:27;100845.36;;;15.30;93.34
40171;BME280;37650;52.790;18.268;2023-05-24T17:38:48;100854.39;;;15.19;94.38
40171;BME280;37650;52.790;18.268;2023-05-24T17:42:08;100863.77;;;15.11;94.41
40171;BME280;37650;52.790;18.268;2023-05-24T17:45:29;100864.95;;;15.05;95.05
40171;BME280;37650;52.790;18.268;2023-05-24T17:48:49;100864.70;;;15.00;96.22
40171;BME280;37650;52.790;18.268;2023-05-24T17:52:11;100866.61;;;14.97;96.42